createdAt,value
2018-04-14T00:00:31.472Z,0.00
2018-04-14T00:01:31.660Z,0.00
2018-04-14T00:02:31.829Z,0.00
2018-04-14T00:03:31.995Z,0.00
2018-04-14T00:04:32.179Z,0.00
2018-04-14T00:05:32.353Z,0.00
2018-04-14T00:06:32.537Z,0.00
2018-04-14T00:07:32.722Z,0.00
2018-04-14T00:08:32.900Z,0.00
2018-04-14T00:09:33.080Z,0.00
2018-04-14T00:10:33.261Z,0.00
2018-04-14T00:11:33.445Z,0.00
2018-04-14T00:12:33.625Z,0.00
2018-04-14T00:13:33.800Z,0.00
2018-04-14T00:14:33.984Z,0.00
2018-04-14T00:15:34.168Z,0.00
2018-04-14T00:16:34.351Z,0.00
2018-04-14T00:17:34.534Z,0.00
2018-04-14T00:18:34.710Z,0.00
2018-04-14T00:20:35.057Z,0.00
2018-04-14T00:21:35.243Z,0.00
2018-04-14T00:22:35.413Z,0.00
2018-04-14T00:23:35.591Z,0.00
2018-04-14T00:24:35.769Z,0.00
2018-04-14T00:25:35.944Z,0.00
2018-04-14T00:26:36.106Z,0.00
2018-04-14T00:27:36.287Z,0.00
2018-04-14T00:28:36.464Z,0.00
2018-04-14T00:29:37.112Z,0.00
2018-04-14T00:30:36.806Z,0.00
2018-04-14T00:31:36.984Z,0.00
2018-04-14T00:33:37.335Z,0.00
2018-04-14T00:34:37.515Z,0.00
2018-04-14T00:35:37.683Z,0.00
2018-04-14T00:36:37.861Z,0.00
2018-04-14T00:37:38.060Z,0.00
2018-04-14T00:38:38.213Z,0.00
2018-04-14T00:39:38.449Z,0.00
2018-04-14T00:40:38.571Z,0.00
2018-04-14T00:41:38.739Z,0.00
2018-04-14T00:42:38.964Z,0.00
2018-04-14T00:43:39.102Z,0.00
2018-04-14T00:44:39.279Z,0.00
2018-04-14T00:45:39.457Z,0.00
2018-04-14T00:46:39.637Z,0.00
2018-04-14T00:47:39.823Z,0.00
2018-04-14T00:48:40.000Z,0.00
2018-04-14T00:49:40.182Z,0.00
2018-04-14T00:50:40.368Z,0.00
2018-04-14T00:51:40.536Z,0.00
2018-04-14T00:52:40.729Z,0.00
2018-04-14T00:53:40.878Z,0.00
2018-04-14T00:54:41.046Z,0.00
2018-04-14T00:55:41.228Z,0.00
2018-04-14T00:56:41.414Z,0.00
2018-04-14T00:57:41.600Z,0.00
2018-04-14T00:58:41.780Z,0.00
2018-04-14T00:59:41.961Z,0.00
2018-04-14T01:00:42.148Z,0.00
2018-04-14T01:01:42.319Z,0.00
2018-04-14T01:02:42.488Z,0.00
2018-04-14T01:03:42.656Z,0.00
2018-04-14T01:04:42.838Z,0.00
2018-04-14T01:05:43.019Z,0.00
2018-04-14T01:06:43.551Z,0.00
2018-04-14T01:07:43.371Z,0.00
2018-04-14T01:08:43.548Z,0.00
2018-04-14T01:09:43.727Z,0.00
2018-04-14T01:10:43.913Z,0.00
2018-04-14T01:11:44.095Z,0.00
2018-04-14T01:12:44.269Z,0.00
2018-04-14T01:13:44.446Z,0.00
2018-04-14T01:14:44.627Z,0.00
2018-04-14T01:15:44.803Z,0.00
2018-04-14T01:16:45.264Z,0.00
2018-04-14T01:17:45.161Z,0.00
2018-04-14T01:18:45.335Z,0.00
2018-04-14T01:19:45.517Z,0.00
2018-04-14T01:20:45.697Z,0.00
2018-04-14T01:21:45.878Z,0.00
2018-04-14T01:22:46.112Z,0.00
2018-04-14T01:23:46.245Z,0.00
2018-04-14T01:24:46.422Z,0.00
2018-04-14T01:25:46.612Z,0.00
2018-04-14T01:26:46.807Z,0.00
2018-04-14T01:27:46.968Z,0.00
2018-04-14T01:28:47.147Z,0.00
2018-04-14T01:29:47.333Z,0.00
2018-04-14T01:30:47.510Z,0.00
2018-04-14T01:31:47.687Z,0.00
2018-04-14T01:32:47.864Z,0.00
2018-04-14T01:33:48.062Z,0.00
2018-04-14T01:34:48.245Z,0.00
2018-04-14T01:35:48.426Z,0.00
2018-04-14T01:36:48.609Z,0.00
2018-04-14T01:37:48.795Z,0.00
2018-04-14T01:38:48.969Z,0.00
2018-04-14T01:39:49.155Z,0.00
2018-04-14T01:40:49.331Z,0.00
2018-04-14T01:41:49.515Z,0.00
2018-04-14T01:42:49.698Z,0.00
2018-04-14T01:43:49.873Z,0.00
2018-04-14T01:44:50.056Z,0.00
2018-04-14T01:45:50.236Z,0.00
2018-04-14T01:46:50.408Z,0.00
2018-04-14T01:47:50.587Z,0.00
2018-04-14T01:48:50.775Z,0.00
2018-04-14T01:49:50.953Z,0.00
2018-04-14T01:50:51.138Z,0.00
2018-04-14T01:51:51.314Z,0.00
2018-04-14T01:52:51.495Z,0.00
2018-04-14T01:53:51.684Z,0.00
2018-04-14T01:54:51.867Z,0.00
2018-04-14T01:55:52.044Z,0.00
2018-04-14T01:56:52.234Z,0.00
2018-04-14T01:57:52.375Z,0.00
2018-04-14T01:58:52.557Z,0.00
2018-04-14T01:59:52.727Z,0.00
2018-04-14T02:00:53.162Z,0.00
2018-04-14T02:01:53.088Z,0.00
2018-04-14T02:02:53.268Z,0.00
2018-04-14T02:03:53.450Z,0.00
2018-04-14T02:04:53.632Z,0.00
2018-04-14T02:05:53.815Z,0.00
2018-04-14T02:06:53.990Z,0.00
2018-04-14T02:07:54.173Z,0.00
2018-04-14T02:08:54.360Z,0.00
2018-04-14T02:09:54.525Z,0.00
2018-04-14T02:10:54.705Z,0.00
2018-04-14T02:11:54.884Z,0.00
2018-04-14T02:12:55.065Z,0.00
2018-04-14T02:13:55.239Z,0.00
2018-04-14T02:14:55.425Z,0.00
2018-04-14T02:15:55.599Z,0.00
2018-04-14T02:16:55.782Z,0.00
2018-04-14T02:17:55.957Z,0.00
2018-04-14T02:18:56.140Z,0.00
2018-04-14T02:19:56.324Z,0.00
2018-04-14T02:20:56.502Z,0.00
2018-04-14T02:21:56.675Z,0.00
2018-04-14T02:22:56.856Z,0.00
2018-04-14T02:23:57.041Z,0.00
2018-04-14T02:24:57.209Z,0.00
2018-04-14T02:25:57.391Z,0.00
2018-04-14T02:26:57.565Z,0.00
2018-04-14T02:27:57.748Z,0.00
2018-04-14T02:28:57.935Z,0.00
2018-04-14T02:29:58.094Z,0.00
2018-04-14T02:30:58.285Z,0.00
2018-04-14T02:31:58.434Z,0.00
2018-04-14T02:32:58.612Z,0.00
2018-04-14T02:33:58.792Z,0.00
2018-04-14T02:34:58.981Z,0.00
2018-04-14T02:35:59.156Z,0.00
2018-04-14T02:36:59.343Z,0.00
2018-04-14T02:37:59.527Z,0.00
2018-04-14T02:38:59.702Z,0.00
2018-04-14T02:39:59.883Z,0.00
2018-04-14T02:41:00.061Z,0.00
2018-04-14T02:42:00.230Z,0.00
2018-04-14T02:43:00.398Z,0.00
2018-04-14T02:44:00.579Z,0.00
2018-04-14T02:45:00.770Z,0.00
2018-04-14T02:46:00.944Z,0.00
2018-04-14T02:47:01.128Z,0.00
2018-04-14T02:48:01.305Z,0.00
2018-04-14T02:49:01.489Z,0.00
2018-04-14T02:50:01.658Z,0.00
2018-04-14T02:51:01.835Z,0.00
2018-04-14T02:52:02.018Z,0.00
2018-04-14T02:53:02.198Z,0.00
2018-04-14T02:54:02.379Z,0.00
2018-04-14T02:55:02.813Z,0.00
2018-04-14T02:56:02.742Z,0.00
2018-04-14T02:57:02.929Z,0.00
2018-04-14T02:58:03.105Z,0.00
2018-04-14T02:59:03.284Z,0.00
2018-04-14T03:00:03.476Z,0.00
2018-04-14T03:01:03.647Z,0.00
2018-04-14T03:02:03.828Z,0.00
2018-04-14T03:03:04.008Z,0.00
2018-04-14T03:04:04.189Z,0.00
2018-04-14T03:05:04.366Z,0.00
2018-04-14T03:06:04.551Z,0.00
2018-04-14T03:07:04.729Z,0.00
2018-04-14T03:08:04.907Z,0.00
2018-04-14T03:09:05.088Z,0.00
2018-04-14T03:10:05.270Z,0.00
2018-04-14T03:11:05.449Z,0.00
2018-04-14T03:12:05.635Z,0.00
2018-04-14T03:13:06.329Z,0.00
2018-04-14T03:14:06.000Z,0.00
2018-04-14T03:15:06.182Z,0.00
2018-04-14T03:16:06.361Z,0.00
2018-04-14T03:17:06.546Z,0.00
2018-04-14T03:18:06.727Z,0.00
2018-04-14T03:19:06.908Z,0.00
2018-04-14T03:20:07.086Z,0.00
2018-04-14T03:21:07.270Z,0.00
2018-04-14T03:22:07.447Z,0.00
2018-04-14T03:23:07.626Z,0.00
2018-04-14T03:24:07.809Z,0.00
2018-04-14T03:25:07.997Z,0.00
2018-04-14T03:26:08.171Z,0.00
2018-04-14T03:27:08.364Z,0.00
2018-04-14T03:28:08.534Z,0.00
2018-04-14T03:29:08.718Z,0.00
2018-04-14T03:30:08.894Z,0.00
2018-04-14T03:31:09.083Z,0.00
2018-04-14T03:32:09.481Z,0.00
2018-04-14T03:33:09.428Z,0.00
2018-04-14T03:34:09.607Z,0.00
2018-04-14T03:35:09.804Z,0.00
2018-04-14T03:36:09.959Z,0.00
2018-04-14T03:37:10.136Z,0.00
2018-04-14T03:38:10.306Z,0.00
2018-04-14T03:39:11.319Z,0.00
2018-04-14T03:40:10.624Z,0.00
2018-04-14T03:41:10.803Z,0.00
2018-04-14T03:42:11.000Z,0.00
2018-04-14T03:43:11.169Z,0.00
2018-04-14T03:44:11.344Z,0.00
2018-04-14T03:45:11.525Z,0.00
2018-04-14T03:46:11.706Z,0.00
2018-04-14T03:47:11.884Z,0.00
2018-04-14T03:48:12.064Z,0.00
2018-04-14T03:49:12.243Z,0.00
2018-04-14T03:50:12.424Z,0.00
2018-04-14T03:51:12.599Z,0.00
2018-04-14T03:52:12.781Z,0.00
2018-04-14T03:53:12.964Z,0.00
2018-04-14T03:54:13.163Z,0.00
2018-04-14T03:55:13.350Z,0.00
2018-04-14T03:56:13.772Z,0.00
2018-04-14T03:57:13.711Z,0.00
2018-04-14T03:58:13.889Z,0.00
2018-04-14T03:59:14.064Z,0.00
2018-04-14T04:00:14.251Z,0.00
2018-04-14T04:01:14.425Z,0.00
2018-04-14T04:02:14.599Z,0.00
2018-04-14T04:03:14.778Z,0.00
2018-04-14T04:04:14.965Z,0.00
2018-04-14T04:05:15.140Z,0.00
2018-04-14T04:06:15.561Z,4.00
2018-04-14T04:07:15.501Z,4.00
2018-04-14T04:08:15.676Z,4.00
2018-04-14T04:09:15.860Z,0.00
2018-04-14T04:10:16.035Z,0.00
2018-04-14T04:11:16.213Z,0.00
2018-04-14T04:12:16.395Z,0.00
2018-04-14T04:13:16.574Z,4.00
2018-04-14T04:14:16.759Z,4.00
2018-04-14T04:15:16.939Z,4.00
2018-04-14T04:17:17.295Z,4.00
2018-04-14T04:18:17.475Z,4.00
2018-04-14T04:19:17.649Z,8.00
2018-04-14T04:20:17.827Z,4.00
2018-04-14T04:21:18.012Z,8.00
2018-04-14T04:22:18.193Z,8.00
2018-04-14T04:23:18.372Z,8.00
2018-04-14T04:24:18.548Z,12.00
2018-04-14T04:25:18.728Z,8.00
2018-04-14T04:27:19.086Z,12.00
2018-04-14T04:28:19.270Z,16.00
2018-04-14T04:29:19.442Z,16.00
2018-04-14T04:30:19.620Z,16.00
2018-04-14T04:31:19.803Z,20.00
2018-04-14T04:32:19.963Z,24.00
2018-04-14T04:33:20.145Z,24.00
2018-04-14T04:34:20.321Z,24.00
2018-04-14T04:35:20.496Z,28.00
2018-04-14T04:36:20.684Z,28.00
2018-04-14T04:37:20.863Z,32.00
2018-04-14T04:38:21.043Z,36.00
2018-04-14T04:39:21.236Z,36.00
2018-04-14T04:40:21.399Z,40.00
2018-04-14T04:41:21.578Z,44.00
2018-04-14T04:42:21.753Z,48.00
2018-04-14T04:43:21.940Z,48.00
2018-04-14T04:44:22.123Z,52.00
2018-04-14T04:45:22.308Z,60.00
2018-04-14T04:46:22.482Z,60.00
2018-04-14T04:47:22.660Z,68.00
2018-04-14T04:48:22.833Z,76.00
2018-04-14T04:49:23.001Z,84.00
2018-04-14T04:50:23.190Z,100.00
2018-04-14T04:51:23.355Z,108.00
2018-04-14T04:52:23.556Z,120.00
2018-04-14T04:53:23.736Z,132.00
2018-04-14T04:54:23.933Z,148.00
2018-04-14T04:55:24.116Z,176.00
2018-04-14T04:56:24.296Z,204.00
2018-04-14T04:57:24.478Z,252.00
2018-04-14T04:58:24.660Z,324.00
2018-04-14T04:59:24.839Z,412.00
2018-04-14T05:00:25.328Z,468.00
2018-04-14T05:01:25.199Z,468.00
2018-04-14T05:02:25.390Z,480.00
2018-04-14T05:03:25.572Z,520.00
2018-04-14T05:04:25.789Z,580.00
2018-04-14T05:05:25.925Z,644.00
2018-04-14T05:06:26.102Z,700.00
2018-04-14T05:07:26.282Z,756.00
2018-04-14T05:08:26.466Z,824.00
2018-04-14T05:09:26.651Z,888.00
2018-04-14T05:10:26.830Z,924.00
2018-04-14T05:11:27.013Z,996.00
2018-04-14T05:12:27.193Z,1072.00
2018-04-14T05:13:27.371Z,1068.00
2018-04-14T05:14:27.552Z,1000.00
2018-04-14T05:15:27.730Z,952.00
2018-04-14T05:16:27.918Z,876.00
2018-04-14T05:17:28.095Z,904.00
2018-04-14T05:18:28.284Z,984.00
2018-04-14T05:19:28.449Z,1036.00
2018-04-14T05:20:28.632Z,1116.00
2018-04-14T05:21:28.814Z,1216.00
2018-04-14T05:22:28.997Z,1352.00
2018-04-14T05:23:29.168Z,1476.00
2018-04-14T05:24:29.347Z,1472.00
2018-04-14T05:25:29.538Z,1616.00
2018-04-14T05:26:29.717Z,1684.00
2018-04-14T05:27:29.889Z,1860.00
2018-04-14T05:28:30.068Z,1940.00
2018-04-14T05:29:30.251Z,2052.00
2018-04-14T05:30:30.431Z,2244.00
2018-04-14T05:31:30.629Z,2272.00
2018-04-14T05:32:30.793Z,2264.00
2018-04-14T05:33:30.969Z,2168.00
2018-04-14T05:34:31.152Z,2152.00
2018-04-14T05:35:31.329Z,2172.00
2018-04-14T05:36:31.513Z,2248.00
2018-04-14T05:37:31.708Z,2280.00
2018-04-14T05:38:31.868Z,2324.00
2018-04-14T05:39:32.050Z,2576.00
2018-04-14T05:40:32.227Z,2580.00
2018-04-14T05:41:32.406Z,3424.00
2018-04-14T05:42:32.636Z,10992.00
2018-04-14T05:43:32.760Z,10400.00
2018-04-14T05:44:33.022Z,8780.00
2018-04-14T05:45:33.113Z,11896.00
2018-04-14T05:46:33.285Z,11744.00
2018-04-14T05:47:33.455Z,15264.00
2018-04-14T05:48:33.648Z,12800.00
2018-04-14T05:49:33.813Z,16544.00
2018-04-14T05:50:33.997Z,15904.00
2018-04-14T05:51:34.189Z,18176.00
2018-04-14T05:52:34.360Z,19424.00
2018-04-14T05:53:34.545Z,19264.00
2018-04-14T05:54:34.723Z,20352.00
2018-04-14T05:55:34.903Z,22016.00
2018-04-14T05:56:35.085Z,19904.00
2018-04-14T05:57:35.264Z,23168.00
2018-04-14T05:58:35.450Z,21536.00
2018-04-14T05:59:35.616Z,19872.00
2018-04-14T06:00:35.798Z,22368.00
2018-04-14T06:01:35.979Z,23456.00
2018-04-14T06:02:36.165Z,19680.00
2018-04-14T06:03:36.346Z,18944.00
2018-04-14T06:04:36.539Z,25344.00
2018-04-14T06:05:36.719Z,21472.00
2018-04-14T06:06:36.917Z,22816.00
2018-04-14T06:07:37.080Z,22528.00
2018-04-14T06:08:37.293Z,24288.00
2018-04-14T06:09:37.473Z,24640.00
2018-04-14T06:10:37.623Z,23104.00
2018-04-14T06:11:37.811Z,18816.00
2018-04-14T06:12:37.979Z,14944.00
2018-04-14T06:13:38.182Z,21856.00
2018-04-14T06:14:38.351Z,15424.00
2018-04-14T06:15:38.537Z,11588.00
2018-04-14T06:16:38.716Z,13988.00
2018-04-14T06:17:38.904Z,9872.00
2018-04-14T06:18:39.111Z,23392.00
2018-04-14T06:19:39.303Z,10440.00
2018-04-14T06:20:39.441Z,19200.00
2018-04-14T06:21:39.622Z,25984.00
2018-04-14T06:22:39.798Z,9480.00
2018-04-14T06:23:39.978Z,15296.00
2018-04-14T06:24:40.166Z,25376.00
2018-04-14T06:25:40.358Z,26720.00
2018-04-14T06:26:40.547Z,8496.00
2018-04-14T06:27:40.731Z,13816.00
2018-04-14T06:28:40.908Z,26048.00
2018-04-14T06:29:41.068Z,22048.00
2018-04-14T06:30:41.257Z,29088.00
2018-04-14T06:31:41.428Z,29728.00
2018-04-14T06:32:41.612Z,9120.00
2018-04-14T06:33:41.791Z,9112.00
2018-04-14T06:34:41.996Z,18432.00
2018-04-14T06:35:42.168Z,27712.00
2018-04-14T06:36:42.344Z,28992.00
2018-04-14T06:37:42.527Z,27680.00
2018-04-14T06:38:42.713Z,26912.00
2018-04-14T06:39:42.888Z,26304.00
2018-04-14T06:40:43.079Z,26944.00
2018-04-14T06:41:43.265Z,26752.00
2018-04-14T06:42:43.451Z,7600.00
2018-04-14T06:43:43.638Z,6856.00
2018-04-14T06:44:43.810Z,6284.00
2018-04-14T06:45:43.994Z,19648.00
2018-04-14T06:46:44.190Z,7452.00
2018-04-14T06:47:44.361Z,7492.00
2018-04-14T06:48:44.540Z,16896.00
2018-04-14T06:49:44.731Z,13284.00
2018-04-14T06:50:44.899Z,14144.00
2018-04-14T06:51:45.079Z,16800.00
2018-04-14T06:52:45.267Z,12456.00
2018-04-14T06:53:45.446Z,26112.00
2018-04-14T06:54:45.633Z,16512.00
2018-04-14T06:55:45.820Z,26016.00
2018-04-14T06:56:46.003Z,29952.00
2018-04-14T06:57:46.177Z,28672.00
2018-04-14T06:58:46.381Z,28288.00
2018-04-14T06:59:46.555Z,28800.00
2018-04-14T07:00:46.756Z,29760.00
2018-04-14T07:01:46.963Z,29344.00
2018-04-14T07:02:47.124Z,28160.00
2018-04-14T07:03:47.309Z,26176.00
2018-04-14T07:04:47.499Z,25792.00
2018-04-14T07:05:47.690Z,27680.00
2018-04-14T07:06:47.888Z,27776.00
2018-04-14T07:07:48.068Z,26464.00
2018-04-14T07:08:48.230Z,26720.00
2018-04-14T07:09:48.413Z,26976.00
2018-04-14T07:10:48.591Z,26368.00
2018-04-14T07:11:48.781Z,25824.00
2018-04-14T07:12:48.977Z,25056.00
2018-04-14T07:13:49.166Z,24288.00
2018-04-14T07:14:49.327Z,24832.00
2018-04-14T07:15:49.498Z,25120.00
2018-04-14T07:16:49.681Z,24832.00
2018-04-14T07:17:49.856Z,24192.00
2018-04-14T07:18:50.062Z,22912.00
2018-04-14T07:19:50.222Z,21984.00
2018-04-14T07:20:50.408Z,22080.00
2018-04-14T07:21:50.589Z,22848.00
2018-04-14T07:22:50.773Z,22240.00
2018-04-14T07:23:50.957Z,22464.00
2018-04-14T07:24:51.153Z,22528.00
2018-04-14T07:25:51.343Z,21504.00
2018-04-14T07:26:51.523Z,21408.00
2018-04-14T07:27:51.713Z,21312.00
2018-04-14T07:28:51.908Z,21184.00
2018-04-14T07:29:52.090Z,20928.00
2018-04-14T07:30:52.265Z,20224.00
2018-04-14T07:31:52.453Z,19872.00
2018-04-14T07:32:52.647Z,19488.00
2018-04-14T07:33:52.844Z,19264.00
2018-04-14T07:34:53.006Z,18976.00
2018-04-14T07:35:55.821Z,18464.00
2018-04-14T07:36:53.443Z,17952.00
2018-04-14T07:37:54.314Z,17056.00
2018-04-14T07:38:53.798Z,16672.00
2018-04-14T07:39:53.998Z,16544.00
2018-04-14T07:40:54.174Z,16384.00
2018-04-14T07:41:54.359Z,16448.00
2018-04-14T07:42:54.529Z,15168.00
2018-04-14T07:43:54.772Z,15328.00
2018-04-14T07:44:55.165Z,14424.00
2018-04-14T07:45:55.107Z,14304.00
2018-04-14T07:46:55.296Z,14236.00
2018-04-14T07:47:55.488Z,14360.00
2018-04-14T07:48:55.658Z,14260.00
2018-04-14T07:49:55.819Z,14080.00
2018-04-14T07:50:56.003Z,13640.00
2018-04-14T07:51:56.192Z,13732.00
2018-04-14T07:52:56.356Z,13952.00
2018-04-14T07:53:56.540Z,13864.00
2018-04-14T07:54:56.725Z,13556.00
2018-04-14T07:55:56.887Z,13268.00
2018-04-14T07:56:57.067Z,13096.00
2018-04-14T07:57:57.272Z,12972.00
2018-04-14T07:58:57.402Z,12776.00
2018-04-14T07:59:57.575Z,12412.00
2018-04-14T08:00:57.756Z,12464.00
2018-04-14T08:01:57.955Z,12160.00
2018-04-14T08:02:58.186Z,11756.00
2018-04-14T08:03:58.339Z,11616.00
2018-04-14T08:04:58.482Z,11556.00
2018-04-14T08:05:58.646Z,11536.00
2018-04-14T08:06:58.814Z,11368.00
2018-04-14T08:07:59.040Z,11360.00
2018-04-14T08:08:59.191Z,11344.00
2018-04-14T08:09:59.366Z,11272.00
2018-04-14T08:10:59.576Z,11304.00
2018-04-14T08:11:59.722Z,10684.00
2018-04-14T08:12:59.891Z,11016.00
2018-04-14T08:14:00.074Z,11012.00
2018-04-14T08:15:00.260Z,11088.00
2018-04-14T08:16:00.453Z,11040.00
2018-04-14T08:17:00.637Z,11052.00
2018-04-14T08:18:00.799Z,10920.00
2018-04-14T08:19:01.001Z,11016.00
2018-04-14T08:20:01.168Z,10944.00
2018-04-14T08:21:01.360Z,10752.00
2018-04-14T08:22:01.512Z,10800.00
2018-04-14T08:23:01.693Z,10824.00
2018-04-14T08:24:01.900Z,10608.00
2018-04-14T08:25:02.101Z,8728.00
2018-04-14T08:26:02.270Z,10596.00
2018-04-14T08:27:02.450Z,10552.00
2018-04-14T08:28:02.617Z,10484.00
2018-04-14T08:29:02.830Z,10536.00
2018-04-14T08:30:03.071Z,10412.00
2018-04-14T08:31:03.155Z,10324.00
2018-04-14T08:33:03.542Z,10300.00
2018-04-14T08:34:03.703Z,10276.00
2018-04-14T08:35:03.912Z,10276.00
2018-04-14T08:36:04.093Z,10212.00
2018-04-14T08:37:04.297Z,10240.00
2018-04-14T08:38:04.522Z,10148.00
2018-04-14T08:39:04.662Z,9596.00
2018-04-14T08:40:04.832Z,9964.00
2018-04-14T08:41:05.049Z,10000.00
2018-04-14T08:42:05.224Z,9968.00
2018-04-14T08:43:05.388Z,9944.00
2018-04-14T08:44:05.560Z,9980.00
2018-04-14T08:45:05.852Z,9968.00
2018-04-14T08:46:05.945Z,9928.00
2018-04-14T08:47:06.118Z,9952.00
2018-04-14T08:48:06.344Z,9956.00
2018-04-14T08:49:06.457Z,9912.00
2018-04-14T08:50:06.721Z,9876.00
2018-04-14T08:51:07.423Z,9900.00
2018-04-14T08:52:07.045Z,9632.00
2018-04-14T08:53:07.214Z,9836.00
2018-04-14T08:54:07.334Z,9760.00
2018-04-14T08:55:07.514Z,9708.00
2018-04-14T08:56:07.692Z,9268.00
2018-04-14T08:57:07.855Z,9640.00
2018-04-14T08:58:08.084Z,8564.00
2018-04-14T08:59:10.927Z,8472.00
2018-04-14T09:00:08.472Z,8440.00
2018-04-14T09:01:08.649Z,9456.00
2018-04-14T09:02:08.863Z,9448.00
2018-04-14T09:03:09.370Z,9560.00
2018-04-14T09:04:09.260Z,9548.00
2018-04-14T09:05:09.350Z,9588.00
2018-04-14T09:06:09.527Z,9628.00
2018-04-14T09:07:09.697Z,9780.00
2018-04-14T09:08:09.901Z,9708.00
2018-04-14T09:09:10.127Z,9696.00
2018-04-14T09:10:10.245Z,9768.00
2018-04-14T09:11:10.411Z,9484.00
2018-04-14T09:12:10.599Z,8912.00
2018-04-14T09:13:11.017Z,9036.00
2018-04-14T09:14:10.917Z,9300.00
2018-04-14T09:15:11.148Z,9464.00
2018-04-14T09:16:11.372Z,9688.00
2018-04-14T09:17:11.466Z,9808.00
2018-04-14T09:18:11.653Z,9900.00
2018-04-14T09:19:11.904Z,9856.00
2018-04-14T09:20:12.084Z,9976.00
2018-04-14T09:21:12.219Z,9832.00
2018-04-14T09:22:12.425Z,8800.00
2018-04-14T09:23:12.584Z,6248.00
2018-04-14T09:24:12.782Z,4584.00
2018-04-14T09:25:12.947Z,4744.00
2018-04-14T09:26:13.131Z,6460.00
2018-04-14T09:27:13.318Z,6664.00
2018-04-14T09:28:13.474Z,8192.00
2018-04-14T09:29:13.659Z,8384.00
2018-04-14T09:30:13.837Z,8864.00
2018-04-14T09:31:14.009Z,9076.00
2018-04-14T09:32:14.224Z,7492.00
2018-04-14T09:33:14.387Z,7016.00
2018-04-14T09:34:14.553Z,6896.00
2018-04-14T09:35:14.706Z,6724.00
2018-04-14T09:36:14.925Z,6652.00
2018-04-14T09:37:15.113Z,6108.00
2018-04-14T09:38:15.232Z,5368.00
2018-04-14T09:39:15.421Z,6136.00
2018-04-14T09:40:15.830Z,5724.00
2018-04-14T09:41:15.764Z,6004.00
2018-04-14T09:42:15.951Z,6320.00
2018-04-14T09:43:16.152Z,5704.00
2018-04-14T09:44:16.503Z,5988.00
2018-04-14T09:45:16.543Z,6096.00
2018-04-14T09:46:16.719Z,5484.00
2018-04-14T09:47:16.881Z,5904.00
2018-04-14T09:48:17.080Z,6844.00
2018-04-14T09:49:17.230Z,7020.00
2018-04-14T09:50:17.419Z,8528.00
2018-04-14T09:51:17.595Z,9988.00
2018-04-14T09:52:17.744Z,10672.00
2018-04-14T09:53:17.952Z,9264.00
2018-04-14T09:54:18.113Z,10820.00
2018-04-14T09:55:18.288Z,10664.00
2018-04-14T09:56:18.538Z,10976.00
2018-04-14T09:57:18.742Z,11532.00
2018-04-14T09:58:18.875Z,12380.00
2018-04-14T09:59:19.138Z,11772.00
2018-04-14T10:00:19.338Z,5644.00
2018-04-14T10:01:19.541Z,10600.00
2018-04-14T10:02:19.744Z,11692.00
2018-04-14T10:03:19.896Z,11168.00
2018-04-14T10:04:20.092Z,11364.00
2018-04-14T10:05:20.286Z,11604.00
2018-04-14T10:06:20.480Z,10992.00
2018-04-14T10:07:20.635Z,10140.00
2018-04-14T10:08:20.823Z,10380.00
2018-04-14T10:09:20.987Z,9652.00
2018-04-14T10:10:21.224Z,6476.00
2018-04-14T10:11:21.349Z,7660.00
2018-04-14T10:12:21.551Z,8180.00
2018-04-14T10:13:21.700Z,9260.00
2018-04-14T10:14:21.871Z,9528.00
2018-04-14T10:15:22.056Z,8792.00
2018-04-14T10:16:22.248Z,9548.00
2018-04-14T10:17:22.401Z,6132.00
2018-04-14T10:18:22.591Z,5360.00
2018-04-14T10:19:22.779Z,6632.00
2018-04-14T10:20:22.961Z,7120.00
2018-04-14T10:21:23.347Z,5780.00
2018-04-14T10:22:23.301Z,3672.00
2018-04-14T10:23:23.484Z,4024.00
2018-04-14T10:24:23.663Z,3788.00
2018-04-14T10:25:23.850Z,3636.00
2018-04-14T10:26:24.954Z,3380.00
2018-04-14T10:27:24.313Z,3368.00
2018-04-14T10:28:24.437Z,3496.00
2018-04-14T10:29:24.618Z,3876.00
2018-04-14T10:30:24.807Z,3916.00
2018-04-14T10:31:25.150Z,4020.00
2018-04-14T10:32:25.887Z,3824.00
2018-04-14T10:33:26.391Z,3908.00
2018-04-14T10:34:25.590Z,4352.00
2018-04-14T10:35:25.785Z,5028.00
2018-04-14T10:36:25.980Z,7656.00
2018-04-14T10:37:26.148Z,8616.00
2018-04-14T10:38:26.386Z,9336.00
2018-04-14T10:39:26.500Z,8496.00
2018-04-14T10:40:26.755Z,9628.00
2018-04-14T10:41:26.946Z,9992.00
2018-04-14T10:42:27.076Z,9096.00
2018-04-14T10:43:27.271Z,8456.00
2018-04-14T10:44:27.455Z,8344.00
2018-04-14T10:45:27.603Z,8456.00
2018-04-14T10:46:27.828Z,8468.00
2018-04-14T10:47:27.961Z,8676.00
2018-04-14T10:48:28.191Z,7320.00
2018-04-14T10:49:28.369Z,8108.00
2018-04-14T10:50:28.563Z,8388.00
2018-04-14T10:51:28.747Z,8240.00
2018-04-14T10:52:28.933Z,8204.00
2018-04-14T10:53:29.113Z,8116.00
2018-04-14T10:54:29.299Z,7864.00
2018-04-14T10:55:29.477Z,8140.00
2018-04-14T10:56:29.666Z,8180.00
2018-04-14T10:57:29.826Z,8296.00
2018-04-14T10:58:30.004Z,8204.00
2018-04-14T10:59:30.203Z,8076.00
2018-04-14T11:00:30.361Z,8108.00
2018-04-14T11:01:30.556Z,8116.00
2018-04-14T11:02:30.705Z,8024.00
2018-04-14T11:03:30.891Z,8048.00
2018-04-14T11:04:31.087Z,8000.00
2018-04-14T11:05:31.325Z,8080.00
2018-04-14T11:06:31.530Z,6284.00
2018-04-14T11:07:31.805Z,5324.00
2018-04-14T11:08:31.945Z,7892.00
2018-04-14T11:09:32.168Z,7020.00
2018-04-14T11:10:32.235Z,4132.00
2018-04-14T11:11:32.429Z,3904.00
2018-04-14T11:12:32.665Z,7244.00
2018-04-14T11:13:32.812Z,5596.00
2018-04-14T11:14:32.981Z,3928.00
2018-04-14T11:15:33.151Z,3740.00
2018-04-14T11:16:33.396Z,3560.00
2018-04-14T11:17:33.544Z,3616.00
2018-04-14T11:18:33.714Z,3812.00
2018-04-14T11:19:33.893Z,3908.00
2018-04-14T11:20:34.125Z,4140.00
2018-04-14T11:21:34.258Z,4404.00
2018-04-14T11:22:34.446Z,4508.00
2018-04-14T11:23:34.645Z,4548.00
2018-04-14T11:24:34.777Z,6916.00
2018-04-14T11:25:34.992Z,7216.00
2018-04-14T11:26:35.141Z,4312.00
2018-04-14T11:27:35.323Z,5288.00
2018-04-14T11:28:35.542Z,7136.00
2018-04-14T11:29:35.878Z,7212.00
2018-04-14T11:30:36.027Z,7348.00
2018-04-14T11:31:36.027Z,7164.00
2018-04-14T11:32:36.270Z,6772.00
2018-04-14T11:33:36.406Z,6368.00
2018-04-14T11:34:36.579Z,3936.00
2018-04-14T11:35:36.755Z,5672.00
2018-04-14T11:36:36.935Z,3576.00
2018-04-14T11:37:37.103Z,3636.00
2018-04-14T11:38:37.265Z,5280.00
2018-04-14T11:39:37.441Z,6232.00
2018-04-14T11:40:37.879Z,3928.00
2018-04-14T11:41:37.839Z,4152.00
2018-04-14T11:42:37.988Z,6656.00
2018-04-14T11:43:38.143Z,4200.00
2018-04-14T11:44:38.359Z,4232.00
2018-04-14T11:45:38.500Z,4284.00
2018-04-14T11:46:38.679Z,4260.00
2018-04-14T11:47:38.856Z,4344.00
2018-04-14T11:48:38.995Z,6540.00
2018-04-14T11:49:39.188Z,4296.00
2018-04-14T11:50:39.364Z,4268.00
2018-04-14T11:51:39.522Z,4312.00
2018-04-14T11:52:39.700Z,4140.00
2018-04-14T11:53:39.891Z,4056.00
2018-04-14T11:54:40.048Z,4876.00
2018-04-14T11:55:40.246Z,6280.00
2018-04-14T11:56:40.451Z,5124.00
2018-04-14T11:57:40.589Z,4504.00
2018-04-14T11:58:40.781Z,4040.00
2018-04-14T11:59:40.984Z,5992.00
2018-04-14T12:00:41.143Z,6048.00
2018-04-14T12:01:41.369Z,3756.00
2018-04-14T12:02:41.503Z,3756.00
2018-04-14T12:03:41.660Z,3764.00
2018-04-14T12:04:41.902Z,3712.00
2018-04-14T12:05:42.003Z,3728.00
2018-04-14T12:06:42.153Z,3836.00
2018-04-14T12:07:42.333Z,3696.00
2018-04-14T12:08:42.502Z,4276.00
2018-04-14T12:09:42.763Z,6260.00
2018-04-14T12:10:43.134Z,3944.00
2018-04-14T12:11:43.011Z,6412.00
2018-04-14T12:12:43.217Z,6812.00
2018-04-14T12:14:43.575Z,5652.00
2018-04-14T12:15:43.736Z,6388.00
2018-04-14T12:16:43.947Z,6236.00
2018-04-14T12:17:44.084Z,6108.00
2018-04-14T12:18:44.309Z,6148.00
2018-04-14T12:19:44.498Z,3340.00
2018-04-14T12:20:44.657Z,5700.00
2018-04-14T12:21:44.858Z,5640.00
2018-04-14T12:22:45.029Z,5680.00
2018-04-14T12:23:45.193Z,5528.00
2018-04-14T12:24:45.383Z,5436.00
2018-04-14T12:25:45.546Z,5500.00
2018-04-14T12:26:45.729Z,5648.00
2018-04-14T12:27:45.902Z,5832.00
2018-04-14T12:28:46.076Z,5844.00
2018-04-14T12:29:46.262Z,5872.00
2018-04-14T12:30:46.421Z,5876.00
2018-04-14T12:31:46.714Z,5928.00
2018-04-14T12:32:46.806Z,5980.00
2018-04-14T12:33:46.952Z,6108.00
2018-04-14T12:34:47.172Z,6120.00